Time;durP1;ratioP1;P1;durP2;ratioP2;P2;SDS_P1;SDS_P2;PMS_P1;PMS_P2;Temp;Humidity;BMP_temperature;BMP_pressure;BME280_temperature;BME280_humidity;BME280_pressure;Samples;Min_cycle;Max_cycle;Signal;HPM_P1;HPM_P2
2022/03/07 00:01:34;;;;;;;7.67;5.50;;;3.40;54.30;;;;;;5016100;28;20984;-42
2022/03/07 00:04:02;;;;;;;5.60;5.00;;;3.40;54.20;;;;;;5004282;28;20536;-42
2022/03/07 00:06:29;;;;;;;5.87;5.10;;;3.40;54.80;;;;;;5019285;28;20842;-42
2022/03/07 00:08:58;;;;;;;6.03;5.53;;;3.40;54.40;;;;;;5018907;28;21549;-42
2022/03/07 00:11:25;;;;;;;5.23;4.70;;;3.40;54.00;;;;;;5021740;28;20554;-43
2022/03/07 00:13:52;;;;;;;6.60;4.97;;;3.40;54.50;;;;;;5019947;28;20487;-43
2022/03/07 00:16:18;;;;;;;5.43;4.90;;;3.40;54.50;;;;;;5019303;28;20451;-42
2022/03/07 00:18:46;;;;;;;8.20;4.73;;;3.40;54.20;;;;;;5023688;28;20460;-43
2022/03/07 00:21:12;;;;;;;6.37;5.00;;;3.30;54.70;;;;;;5019414;28;20458;-43
2022/03/07 00:23:39;;;;;;;5.97;5.33;;;3.30;54.70;;;;;;5020083;28;20529;-43
2022/03/07 00:26:06;;;;;;;4.70;4.30;;;3.30;54.80;;;;;;5018559;28;20974;-43
2022/03/07 00:28:33;;;;;;;4.47;4.17;;;3.30;54.40;;;;;;5032954;28;20847;-43
2022/03/07 00:31:05;;;;;;;5.33;4.57;;;3.20;54.40;;;;;;5022457;28;20562;-43
2022/03/07 00:33:32;;;;;;;4.93;4.43;;;3.20;54.40;;;;;;5023767;28;20529;-43
2022/03/07 00:35:59;;;;;;;4.10;3.80;;;3.10;54.50;;;;;;5017807;28;20472;-43
2022/03/07 00:38:26;;;;;;;4.53;4.10;;;3.10;54.90;;;;;;5017695;28;20976;-43
2022/03/07 00:40:52;;;;;;;5.70;4.20;;;3.10;54.80;;;;;;5002767;28;20455;-43
2022/03/07 00:43:21;;;;;;;3.80;3.50;;;3.10;55.70;;;;;;5007282;28;20468;-43
2022/03/07 00:45:48;;;;;;;6.20;4.40;;;3.10;55.20;;;;;;5020856;28;20449;-42
2022/03/07 00:48:16;;;;;;;4.60;4.20;;;3.00;55.00;;;;;;5022429;28;20985;-42
2022/03/07 00:50:47;;;;;;;4.50;4.13;;;3.00;55.10;;;;;;5017784;28;20463;-42
2022/03/07 00:53:16;;;;;;;3.87;3.57;;;2.90;55.20;;;;;;5019755;28;20490;-42
2022/03/07 00:55:44;;;;;;;5.67;4.27;;;2.90;55.30;;;;;;5007035;28;20525;-43
2022/03/07 00:58:11;;;;;;;5.37;4.87;;;2.90;55.00;;;;;;5019185;28;20463;-43
2022/03/07 01:00:39;;;;;;;3.90;3.23;;;2.80;55.40;;;;;;5013597;28;20464;-42
2022/03/07 01:03:08;;;;;;;4.17;3.57;;;2.80;55.40;;;;;;5020776;28;20451;-43
2022/03/07 01:05:36;;;;;;;4.67;4.27;;;2.80;55.40;;;;;;5021798;28;20465;-43
2022/03/07 01:08:03;;;;;;;5.10;3.37;;;2.80;55.30;;;;;;5018416;28;20468;-42
2022/03/07 01:10:29;;;;;;;4.97;3.73;;;2.70;56.00;;;;;;5015497;28;20510;-43
2022/03/07 01:12:56;;;;;;;4.90;3.70;;;2.70;55.60;;;;;;5020653;28;21072;-42
2022/03/07 01:15:23;;;;;;;4.80;3.83;;;2.60;55.70;;;;;;5018171;28;20460;-42
2022/03/07 01:17:50;;;;;;;5.20;4.53;;;2.60;55.50;;;;;;5021386;28;20487;-43
2022/03/07 01:20:18;;;;;;;4.60;3.90;;;2.60;54.70;;;;;;5019820;28;20472;-42
2022/03/07 01:22:44;;;;;;;3.63;3.33;;;2.60;55.20;;;;;;5018898;28;20501;-42
2022/03/07 01:25:11;;;;;;;4.30;3.90;;;2.60;54.70;;;;;;5019822;28;20463;-42
2022/03/07 01:27:38;;;;;;;3.67;3.37;;;2.50;54.50;;;;;;5020045;28;20500;-42
2022/03/07 01:30:07;;;;;;;4.00;3.57;;;2.50;54.70;;;;;;5018423;28;20463;-42
2022/03/07 01:32:34;;;;;;;4.33;3.43;;;2.50;54.70;;;;;;5017982;28;21072;-42
2022/03/07 01:35:00;;;;;;;5.17;4.23;;;2.50;53.40;;;;;;5022340;28;20480;-42
2022/03/07 01:37:27;;;;;;;4.43;4.03;;;2.40;54.30;;;;;;5018799;28;20463;-42
2022/03/07 01:39:54;;;;;;;6.00;3.57;;;2.40;54.40;;;;;;5017565;28;20459;-42
2022/03/07 01:42:23;;;;;;;4.03;3.70;;;2.40;54.30;;;;;;5017322;28;20463;-42
2022/03/07 01:44:50;;;;;;;6.17;4.60;;;2.40;53.90;;;;;;5031138;28;20486;-43
2022/03/07 01:47:17;;;;;;;6.00;4.47;;;2.30;53.40;;;;;;5016308;28;20843;-42
2022/03/07 01:49:44;;;;;;;4.00;3.60;;;2.30;53.70;;;;;;5023538;28;20460;-42
2022/03/07 01:52:12;;;;;;;4.33;3.93;;;2.30;53.70;;;;;;5019047;28;20832;-42
2022/03/07 01:54:39;;;;;;;4.67;4.27;;;2.30;53.70;;;;;;5029626;28;20456;-42
2022/03/07 01:57:06;;;;;;;4.90;4.50;;;2.30;53.60;;;;;;5001642;28;20507;-43
2022/03/07 01:59:33;;;;;;;4.97;4.50;;;2.30;53.90;;;;;;5032120;28;20471;-43
2022/03/07 02:02:01;;;;;;;4.83;4.43;;;2.30;53.30;;;;;;5023449;28;20460;-42
2022/03/07 02:04:31;;;;;;;5.20;4.80;;;2.30;53.40;;;;;;5036445;28;20546;-42
2022/03/07 02:06:57;;;;;;;5.17;4.67;;;2.30;53.90;;;;;;5017915;28;20482;-43
2022/03/07 02:09:24;;;;;;;5.87;4.87;;;2.30;53.40;;;;;;5023728;28;20547;-43
2022/03/07 02:11:51;;;;;;;7.30;4.97;;;2.30;53.70;;;;;;5017872;28;20991;-42
2022/03/07 02:14:22;;;;;;;6.70;5.07;;;2.30;53.40;;;;;;5023986;28;20492;-42
2022/03/07 02:16:50;;;;;;;7.20;5.23;;;2.30;53.30;;;;;;5003756;28;20465;-42
2022/03/07 02:19:17;;;;;;;6.50;5.40;;;2.40;53.00;;;;;;5003824;28;20460;-42
2022/03/07 02:21:48;;;;;;;6.23;5.17;;;2.30;52.80;;;;;;5004422;28;21015;-42
2022/03/07 02:24:17;;;;;;;6.93;5.73;;;2.30;52.10;;;;;;5016352;28;20457;-42
2022/03/07 02:27:01;;;;;;;8.23;6.07;;;2.30;52.80;;;;;;5019663;28;21570;-42
2022/03/07 02:29:29;;;;;;;9.17;6.40;;;2.30;52.80;;;;;;5022769;28;20456;-42
2022/03/07 02:31:56;;;;;;;9.57;5.97;;;2.20;52.20;;;;;;5017529;28;20472;-42
2022/03/07 02:34:23;;;;;;;8.80;5.90;;;2.20;52.60;;;;;;5021497;28;20488;-42
2022/03/07 02:36:50;;;;;;;8.80;5.73;;;2.20;51.40;;;;;;5023156;28;20463;-42
2022/03/07 02:39:17;;;;;;;7.50;5.97;;;2.20;51.60;;;;;;5004673;28;20491;-43
2022/03/07 02:41:45;;;;;;;8.03;6.60;;;2.20;51.70;;;;;;5020389;28;20459;-42
2022/03/07 02:44:11;;;;;;;8.70;6.70;;;2.20;51.60;;;;;;5037140;28;20823;-42
2022/03/07 02:46:38;;;;;;;8.93;7.30;;;2.20;51.10;;;;;;5007965;28;20501;-42
2022/03/07 02:49:06;;;;;;;9.97;6.93;;;2.20;51.30;;;;;;5019117;28;20465;-42
2022/03/07 02:51:33;;;;;;;8.87;7.10;;;2.20;51.10;;;;;;5020497;28;20476;-43
2022/03/07 02:54:00;;;;;;;7.63;6.23;;;2.20;51.20;;;;;;5021033;28;20483;-43
2022/03/07 02:56:27;;;;;;;11.20;7.97;;;2.20;51.00;;;;;;5039705;28;20455;-43
2022/03/07 02:58:54;;;;;;;10.07;7.17;;;2.10;50.80;;;;;;5020916;28;20452;-42
2022/03/07 03:01:21;;;;;;;10.63;7.60;;;2.10;51.00;;;;;;5020189;28;20456;-42
2022/03/07 03:03:48;;;;;;;11.87;7.73;;;2.20;51.70;;;;;;5020743;28;20878;-42
2022/03/07 03:06:15;;;;;;;10.53;8.03;;;2.10;50.80;;;;;;5018968;28;20452;-42
2022/03/07 03:08:42;;;;;;;9.63;6.40;;;2.10;51.20;;;;;;5022743;28;20458;-42
2022/03/07 03:11:11;;;;;;;11.20;7.50;;;2.20;51.20;;;;;;5021575;28;20551;-42
2022/03/07 03:13:39;;;;;;;10.40;7.43;;;2.20;51.30;;;;;;5021908;28;20561;-42
2022/03/07 03:16:06;;;;;;;12.90;8.27;;;2.20;51.20;;;;;;5017365;28;20493;-42
2022/03/07 03:18:33;;;;;;;11.07;7.93;;;2.20;51.30;;;;;;5021741;28;20948;-42
2022/03/07 03:20:59;;;;;;;9.90;7.37;;;2.20;51.30;;;;;;5023046;28;20479;-42
2022/03/07 03:23:26;;;;;;;10.03;8.03;;;2.10;51.30;;;;;;5019038;28;20462;-42
2022/03/07 03:25:53;;;;;;;8.60;7.70;;;2.10;50.90;;;;;;5019829;28;20475;-42
2022/03/07 03:28:21;;;;;;;9.83;7.40;;;2.10;50.90;;;;;;5001120;28;20499;-42
2022/03/07 03:30:47;;;;;;;11.13;8.10;;;2.10;51.10;;;;;;5017057;28;20451;-43
2022/03/07 03:33:14;;;;;;;9.90;7.60;;;2.00;51.40;;;;;;5018614;28;20488;-43
2022/03/07 03:35:44;;;;;;;10.73;7.90;;;2.10;51.50;;;;;;5016523;28;20816;-41
2022/03/07 03:38:10;;;;;;;11.57;7.60;;;2.10;52.00;;;;;;5021582;28;20478;-41
2022/03/07 03:40:38;;;;;;;12.50;9.33;;;2.10;51.60;;;;;;5009040;28;20503;-41
2022/03/07 03:43:05;;;;;;;10.07;8.40;;;2.00;51.40;;;;;;5024407;28;20459;-42
2022/03/07 03:45:32;;;;;;;11.37;7.80;;;2.00;51.60;;;;;;5017823;28;20455;-42
2022/03/07 03:48:00;;;;;;;11.93;8.87;;;2.00;52.10;;;;;;5018979;28;20508;-42
2022/03/07 03:50:27;;;;;;;11.70;8.80;;;2.00;52.00;;;;;;5019241;28;20464;-41
2022/03/07 03:52:54;;;;;;;13.23;8.57;;;2.00;52.00;;;;;;5005026;28;20831;-42
2022/03/07 03:55:21;;;;;;;12.43;9.10;;;2.10;52.10;;;;;;5019621;28;20571;-42
2022/03/07 03:57:48;;;;;;;11.27;8.30;;;2.10;51.80;;;;;;5038268;28;20959;-43
2022/03/07 04:00:17;;;;;;;11.53;9.60;;;2.00;51.90;;;;;;5022253;28;20986;-43
2022/03/07 04:02:46;;;;;;;11.53;9.13;;;2.10;52.00;;;;;;5019839;28;20940;-43
2022/03/07 04:05:17;;;;;;;10.90;8.50;;;2.10;52.10;;;;;;5020356;28;20460;-43
2022/03/07 04:07:44;;;;;;;12.43;8.93;;;2.10;51.80;;;;;;5019440;28;20482;-43
2022/03/07 04:10:13;;;;;;;11.30;8.20;;;2.00;51.80;;;;;;5010099;28;20451;-44
2022/03/07 04:12:42;;;;;;;10.93;9.20;;;2.00;52.30;;;;;;5021008;28;20965;-44
2022/03/07 04:15:09;;;;;;;15.40;9.67;;;2.00;51.90;;;;;;5021214;28;21081;-44
2022/03/07 04:17:41;;;;;;;12.47;9.80;;;2.00;51.60;;;;;;5019808;28;20462;-43
2022/03/07 04:20:09;;;;;;;13.17;9.93;;;2.00;52.30;;;;;;5022026;28;20554;-43
2022/03/07 04:22:36;;;;;;;13.23;9.83;;;1.90;51.90;;;;;;5022277;28;20822;-43
2022/03/07 04:25:05;;;;;;;11.53;8.87;;;1.90;51.80;;;;;;5023071;28;20471;-43
2022/03/07 04:27:32;;;;;;;12.87;9.17;;;1.90;52.00;;;;;;5022463;28;20948;-42
2022/03/07 04:29:59;;;;;;;10.80;8.80;;;1.90;51.80;;;;;;5018438;28;21027;-43
2022/03/07 04:32:26;;;;;;;13.40;9.73;;;1.90;52.40;;;;;;5021472;28;20467;-43
2022/03/07 04:34:52;;;;;;;14.10;10.70;;;1.90;52.60;;;;;;5022053;28;20490;-43
2022/03/07 04:37:19;;;;;;;14.50;10.03;;;1.90;52.20;;;;;;5018969;28;20454;-43
2022/03/07 04:39:46;;;;;;;13.10;10.23;;;1.80;52.50;;;;;;5034419;28;20485;-43
2022/03/07 04:42:13;;;;;;;14.30;10.43;;;1.80;52.00;;;;;;4991957;28;20991;-43
2022/03/07 04:44:39;;;;;;;12.33;10.10;;;1.80;52.30;;;;;;5014365;28;20460;-43
2022/03/07 04:47:06;;;;;;;16.00;10.27;;;1.80;52.30;;;;;;5017247;28;20483;-43
2022/03/07 04:49:33;;;;;;;14.63;10.90;;;1.80;52.40;;;;;;5019527;28;20472;-43
2022/03/07 04:52:00;;;;;;;11.50;8.47;;;1.70;52.40;;;;;;5001255;28;20464;-43
2022/03/07 04:54:33;;;;;;;13.10;9.07;;;1.80;52.60;;;;;;5017057;28;20582;-43
2022/03/07 04:56:59;;;;;;;12.77;10.13;;;1.80;52.90;;;;;;5033364;28;20454;-43
2022/03/07 04:59:26;;;;;;;19.80;12.63;;;1.70;52.70;;;;;;5006180;28;20474;-43
2022/03/07 05:01:53;;;;;;;15.30;10.50;;;1.70;52.60;;;;;;5017283;28;20456;-43
2022/03/07 05:04:20;;;;;;;14.90;11.30;;;1.70;53.10;;;;;;5018614;28;20470;-43
2022/03/07 05:06:46;;;;;;;16.50;9.90;;;1.70;53.10;;;;;;5017979;28;20973;-43
2022/03/07 05:09:13;;;;;;;17.53;11.70;;;1.70;52.90;;;;;;5019813;28;20471;-43
2022/03/07 05:11:40;;;;;;;13.77;10.17;;;1.70;52.70;;;;;;5020692;28;20478;-43
2022/03/07 05:14:07;;;;;;;16.30;10.87;;;1.70;52.80;;;;;;5018536;28;20505;-43
2022/03/07 05:16:33;;;;;;;21.47;11.30;;;1.70;52.60;;;;;;5018255;28;21213;-43
2022/03/07 05:19:00;;;;;;;12.70;9.07;;;1.70;52.70;;;;;;5018487;28;20546;-43
2022/03/07 05:21:27;;;;;;;12.60;9.37;;;1.60;52.90;;;;;;5019587;28;20455;-43
2022/03/07 05:23:54;;;;;;;15.70;10.93;;;1.60;52.90;;;;;;5005020;28;20754;-43
2022/03/07 05:26:20;;;;;;;14.30;10.60;;;1.60;53.40;;;;;;5016778;28;20563;-43
2022/03/07 05:28:47;;;;;;;14.40;11.50;;;1.60;53.70;;;;;;5016061;28;20464;-43
2022/03/07 05:31:15;;;;;;;14.57;10.40;;;1.60;53.70;;;;;;5018182;28;20945;-43
2022/03/07 05:33:41;;;;;;;13.33;9.87;;;1.60;53.80;;;;;;5003913;28;21970;-43
2022/03/07 05:36:08;;;;;;;15.10;11.10;;;1.60;53.70;;;;;;5018167;28;20490;-43
2022/03/07 05:38:35;;;;;;;13.63;10.37;;;1.60;54.30;;;;;;5022777;28;21025;-43
2022/03/07 05:41:02;;;;;;;12.93;9.60;;;1.60;54.30;;;;;;5018434;28;20990;-43
2022/03/07 05:43:29;;;;;;;14.07;10.87;;;1.60;54.30;;;;;;5019252;28;20464;-43
2022/03/07 05:45:55;;;;;;;13.33;10.23;;;1.60;54.40;;;;;;5006607;28;20888;-43
2022/03/07 05:48:23;;;;;;;14.23;10.93;;;1.60;54.20;;;;;;5019327;28;20577;-43
2022/03/07 05:50:49;;;;;;;14.90;11.77;;;1.60;54.40;;;;;;5017643;28;20471;-43
2022/03/07 05:53:21;;;;;;;13.30;9.73;;;1.60;54.00;;;;;;5022087;28;20470;-44
2022/03/07 05:55:49;;;;;;;15.70;10.37;;;1.60;54.00;;;;;;5018408;28;20588;-43
2022/03/07 05:58:16;;;;;;;14.37;10.43;;;1.50;53.80;;;;;;5009220;28;20949;-43
2022/03/07 06:00:43;;;;;;;14.90;10.93;;;1.50;53.70;;;;;;5018273;28;20463;-43
2022/03/07 06:03:10;;;;;;;12.60;10.37;;;1.50;53.80;;;;;;5015332;28;20493;-43
2022/03/07 06:05:38;;;;;;;15.77;10.80;;;1.50;54.50;;;;;;5034998;28;20521;-43
2022/03/07 06:08:05;;;;;;;14.40;9.80;;;1.50;54.30;;;;;;5006432;28;20452;-43
2022/03/07 06:10:32;;;;;;;14.27;10.10;;;1.50;54.20;;;;;;5019466;28;21027;-43
2022/03/07 06:12:59;;;;;;;15.03;10.97;;;1.50;54.50;;;;;;5018632;28;20581;-43
2022/03/07 06:15:26;;;;;;;12.00;10.73;;;1.60;54.60;;;;;;5016490;28;21074;-44
2022/03/07 06:17:55;;;;;;;13.37;10.27;;;1.60;55.00;;;;;;5000484;28;20547;-44
2022/03/07 06:20:23;;;;;;;12.77;10.33;;;1.60;54.80;;;;;;5030753;28;20463;-44
2022/03/07 06:22:50;;;;;;;21.17;10.00;;;1.70;55.00;;;;;;5017199;28;20456;-43
2022/03/07 06:25:17;;;;;;;16.10;10.90;;;1.70;54.90;;;;;;5006209;28;20470;-43
2022/03/07 06:27:44;;;;;;;16.83;10.10;;;1.70;54.90;;;;;;5018792;28;20979;-43
2022/03/07 06:30:11;;;;;;;14.40;10.37;;;1.70;54.90;;;;;;5003481;28;20571;-43
2022/03/07 06:32:38;;;;;;;13.17;10.47;;;1.70;54.40;;;;;;5019641;28;20479;-43
2022/03/07 06:35:11;;;;;;;13.47;10.60;;;1.70;54.30;;;;;;5020042;28;21065;-43
2022/03/07 06:37:38;;;;;;;12.97;10.13;;;1.70;54.10;;;;;;5016878;28;20460;-43
2022/03/07 06:40:06;;;;;;;12.63;10.67;;;1.70;54.10;;;;;;5018858;28;20467;-43
2022/03/07 06:42:33;;;;;;;16.30;11.20;;;1.70;53.90;;;;;;5015369;28;20487;-43
2022/03/07 06:44:59;;;;;;;12.23;9.83;;;1.70;53.80;;;;;;5018277;28;20466;-43
2022/03/07 06:47:26;;;;;;;14.37;8.93;;;1.70;53.80;;;;;;5018440;28;20598;-43
2022/03/07 06:49:56;;;;;;;13.77;10.50;;;1.70;53.70;;;;;;5021222;28;20472;-43
2022/03/07 06:52:24;;;;;;;13.67;10.90;;;1.70;53.70;;;;;;5018608;28;20857;-43
2022/03/07 06:54:51;;;;;;;9.97;8.53;;;1.70;53.80;;;;;;5018623;28;20574;-43
2022/03/07 06:57:19;;;;;;;11.70;9.60;;;1.70;53.40;;;;;;5019679;28;20460;-43
2022/03/07 06:59:47;;;;;;;14.37;10.10;;;1.70;53.40;;;;;;5020566;28;20956;-43
2022/03/07 07:02:14;;;;;;;12.73;9.70;;;1.70;53.40;;;;;;5009748;28;20460;-43
2022/03/07 07:04:41;;;;;;;10.33;9.10;;;1.80;53.30;;;;;;5023531;28;20472;-43
2022/03/07 07:07:09;;;;;;;10.53;9.47;;;1.80;53.40;;;;;;5021065;28;21050;-43
2022/03/07 07:09:37;;;;;;;10.13;8.40;;;1.80;53.10;;;;;;5008260;28;20476;-43
2022/03/07 07:12:04;;;;;;;12.60;9.40;;;1.80;52.40;;;;;;5010615;28;21148;-43
2022/03/07 07:14:31;;;;;;;16.10;10.60;;;1.90;52.90;;;;;;5022205;28;20574;-43
2022/03/07 07:16:57;;;;;;;9.80;8.00;;;1.90;52.40;;;;;;5022159;28;20833;-43
2022/03/07 07:19:24;;;;;;;11.80;7.70;;;1.90;52.90;;;;;;5033787;28;20467;-43
2022/03/07 07:21:51;;;;;;;12.90;8.00;;;1.90;52.20;;;;;;5021340;28;20811;-43
2022/03/07 07:24:18;;;;;;;11.13;7.67;;;1.90;52.10;;;;;;5018814;28;20957;-43
2022/03/07 07:26:45;;;;;;;11.47;8.33;;;1.90;51.70;;;;;;5018003;28;20979;-43
2022/03/07 07:29:11;;;;;;;9.23;7.67;;;2.00;52.00;;;;;;5019128;28;20562;-44
2022/03/07 07:31:38;;;;;;;8.53;7.67;;;2.00;51.80;;;;;;5019186;28;20480;-43
2022/03/07 07:34:05;;;;;;;8.00;6.90;;;2.00;51.60;;;;;;5021234;28;20491;-43
2022/03/07 07:36:32;;;;;;;8.43;7.57;;;2.10;51.20;;;;;;5022859;28;20455;-43
2022/03/07 07:38:58;;;;;;;8.73;7.23;;;2.10;51.80;;;;;;5008249;28;20967;-43
2022/03/07 07:41:25;;;;;;;8.53;6.40;;;2.10;51.10;;;;;;5025421;28;20928;-43
2022/03/07 07:43:52;;;;;;;13.90;8.50;;;2.20;51.50;;;;;;5020217;28;20448;-43
2022/03/07 07:46:20;;;;;;;8.70;6.80;;;2.20;51.10;;;;;;5021769;28;20506;-43
2022/03/07 07:48:47;;;;;;;7.80;7.10;;;2.20;51.50;;;;;;5021045;28;20860;-45
2022/03/07 07:51:14;;;;;;;10.00;6.90;;;2.30;50.60;;;;;;5019829;28;20459;-45
2022/03/07 07:53:40;;;;;;;7.73;6.93;;;2.30;49.80;;;;;;5020573;28;21027;-45
2022/03/07 07:56:09;;;;;;;8.30;6.70;;;2.30;49.90;;;;;;5017366;28;20482;-45
2022/03/07 07:58:35;;;;;;;7.60;6.90;;;2.40;50.30;;;;;;5019409;28;20463;-45
2022/03/07 08:01:03;;;;;;;7.37;5.93;;;2.50;50.50;;;;;;5018063;28;20961;-45
2022/03/07 08:03:30;;;;;;;7.47;6.27;;;2.60;50.50;;;;;;5019333;28;20458;-45
2022/03/07 08:05:58;;;;;;;7.13;6.43;;;2.70;50.00;;;;;;5022578;28;20613;-45
2022/03/07 08:08:24;;;;;;;6.63;6.00;;;2.80;49.50;;;;;;5020847;28;20470;-45
2022/03/07 08:10:51;;;;;;;11.60;6.67;;;2.90;49.20;;;;;;5007227;28;20463;-45
2022/03/07 08:13:18;;;;;;;5.97;5.30;;;2.90;47.70;;;;;;5018888;28;20474;-45
2022/03/07 08:15:45;;;;;;;13.70;11.23;;;3.00;47.60;;;;;;5016451;28;20495;-45
2022/03/07 08:18:12;;;;;;;11.53;6.63;;;3.10;47.50;;;;;;5016949;28;20451;-44
2022/03/07 08:20:39;;;;;;;7.27;6.40;;;3.10;47.50;;;;;;5018013;28;20456;-44
2022/03/07 08:23:05;;;;;;;7.60;6.17;;;3.30;47.10;;;;;;5019301;28;20851;-44
2022/03/07 08:25:32;;;;;;;7.80;7.10;;;3.40;46.70;;;;;;5008957;28;20578;-44
2022/03/07 08:28:00;;;;;;;7.90;6.70;;;3.50;45.90;;;;;;5011621;28;20460;-44
2022/03/07 08:30:28;;;;;;;6.60;6.00;;;3.60;45.50;;;;;;5016040;28;20952;-44
2022/03/07 08:32:56;;;;;;;6.63;6.03;;;3.70;45.60;;;;;;5018552;28;20477;-44
2022/03/07 08:35:23;;;;;;;6.97;6.27;;;3.90;45.30;;;;;;5018690;28;20599;-44
2022/03/07 08:37:51;;;;;;;6.03;5.40;;;4.00;44.90;;;;;;5019317;28;20968;-44
2022/03/07 08:40:20;;;;;;;5.50;5.00;;;4.10;44.90;;;;;;5030739;28;20550;-44
2022/03/07 08:42:47;;;;;;;9.47;6.37;;;4.30;45.70;;;;;;5019125;28;20467;-44
2022/03/07 08:45:18;;;;;;;6.40;5.73;;;4.50;44.50;;;;;;5003264;28;20467;-44
2022/03/07 08:47:45;;;;;;;7.27;6.00;;;4.60;44.20;;;;;;5019353;28;20599;-44
2022/03/07 08:50:14;;;;;;;9.53;6.80;;;4.70;43.70;;;;;;5021149;28;20458;-44
2022/03/07 08:52:41;;;;;;;6.30;5.67;;;4.80;43.00;;;;;;5002371;28;20957;-45
2022/03/07 08:55:08;;;;;;;6.20;5.60;;;4.70;43.10;;;;;;5015478;28;20796;-45
2022/03/07 08:57:35;;;;;;;8.37;5.40;;;4.70;43.00;;;;;;5020626;28;20478;-45
2022/03/07 09:00:05;;;;;;;7.53;6.00;;;4.70;43.20;;;;;;5000105;28;20779;-45
2022/03/07 09:02:44;;;;;;;8.23;5.60;;;4.60;43.20;;;;;;5018944;28;20460;-44
2022/03/07 09:05:11;;;;;;;9.80;6.13;;;4.60;43.40;;;;;;5017882;28;20993;-44
2022/03/07 09:07:38;;;;;;;7.03;5.30;;;4.60;43.30;;;;;;5016618;28;20484;-44
2022/03/07 09:10:05;;;;;;;6.57;5.30;;;4.60;44.30;;;;;;5017732;28;20472;-44
2022/03/07 09:12:32;;;;;;;6.13;5.63;;;4.60;44.10;;;;;;5019873;28;20547;-45
2022/03/07 09:15:02;;;;;;;6.50;5.30;;;4.60;44.20;;;;;;5017545;28;20493;-45
2022/03/07 09:17:29;;;;;;;7.30;6.37;;;4.60;44.00;;;;;;5015464;28;20965;-44
2022/03/07 09:19:57;;;;;;;8.40;6.00;;;4.60;43.30;;;;;;5015822;28;20457;-44
2022/03/07 09:22:29;;;;;;;8.20;6.07;;;4.50;43.70;;;;;;5016882;28;20469;-45
2022/03/07 09:24:56;;;;;;;6.30;5.70;;;4.40;43.80;;;;;;5015941;28;20532;-45
2022/03/07 09:27:23;;;;;;;8.23;7.37;;;4.40;44.00;;;;;;5001980;28;20519;-45
2022/03/07 09:29:50;;;;;;;7.60;6.80;;;4.40;44.80;;;;;;4999432;28;20516;-45
2022/03/07 09:32:17;;;;;;;8.40;6.70;;;4.50;44.00;;;;;;5017542;28;20464;-45
2022/03/07 09:34:44;;;;;;;11.60;6.60;;;4.60;43.50;;;;;;5017950;28;20488;-45
2022/03/07 09:37:11;;;;;;;7.07;6.20;;;4.50;43.60;;;;;;5030439;28;20530;-45
2022/03/07 09:39:38;;;;;;;8.23;5.67;;;4.50;44.00;;;;;;5018511;28;20973;-45
2022/03/07 09:42:06;;;;;;;7.57;6.70;;;4.50;44.20;;;;;;4998923;28;20461;-45
2022/03/07 09:44:33;;;;;;;7.93;6.53;;;4.50;44.10;;;;;;4992686;28;21091;-45
2022/03/07 09:47:01;;;;;;;7.90;6.27;;;4.60;44.30;;;;;;5017767;28;20904;-45
2022/03/07 09:49:29;;;;;;;9.00;6.13;;;4.70;44.30;;;;;;5014038;28;20464;-45
2022/03/07 09:51:56;;;;;;;6.87;5.63;;;4.90;44.10;;;;;;5013902;28;20459;-45
2022/03/07 09:54:23;;;;;;;7.07;6.00;;;5.00;43.40;;;;;;5017085;28;20531;-45
2022/03/07 09:56:52;;;;;;;7.07;6.37;;;5.10;43.70;;;;;;5009321;28;20467;-45
2022/03/07 09:59:20;;;;;;;7.30;6.60;;;5.40;44.40;;;;;;5019112;28;20464;-44
2022/03/07 10:02:03;;;;;;;8.23;6.73;;;5.60;43.20;;;;;;5023156;28;20971;-44
2022/03/07 10:04:31;;;;;;;6.73;6.10;;;5.80;42.90;;;;;;5020028;28;20510;-44
2022/03/07 10:07:01;;;;;;;7.87;7.17;;;6.00;43.10;;;;;;5013479;28;20471;-44
2022/03/07 10:09:29;;;;;;;11.00;7.87;;;6.30;43.60;;;;;;5015389;28;20466;-44
2022/03/07 10:12:02;;;;;;;7.13;6.30;;;6.50;42.80;;;;;;5017846;28;20502;-44
2022/03/07 10:14:37;;;;;;;8.60;6.90;;;6.70;42.70;;;;;;5000590;28;20455;-44
2022/03/07 10:17:15;;;;;;;7.77;7.07;;;7.00;42.50;;;;;;5015613;28;20459;-44
2022/03/07 10:19:45;;;;;;;6.67;6.07;;;7.30;41.70;;;;;;5015830;28;20467;-44
2022/03/07 10:22:22;;;;;;;6.63;5.97;;;7.40;40.30;;;;;;5004239;28;20517;-45
2022/03/07 10:24:58;;;;;;;5.77;5.20;;;7.60;40.50;;;;;;5019582;28;20547;-45
2022/03/07 10:27:29;;;;;;;10.23;8.50;;;7.70;39.30;;;;;;5017956;28;20485;-44
2022/03/07 10:29:56;;;;;;;7.60;6.17;;;7.80;39.20;;;;;;5019644;28;20834;-44
2022/03/07 10:32:23;;;;;;;8.23;6.23;;;8.10;39.10;;;;;;5023540;28;20955;-44
2022/03/07 10:34:54;;;;;;;6.57;5.97;;;8.40;39.00;;;;;;5015083;28;22778;-45
2022/03/07 10:37:38;;;;;;;10.40;6.40;;;8.70;38.30;;;;;;5015653;28;20817;-45
2022/03/07 10:40:21;;;;;;;6.77;5.77;;;9.00;37.50;;;;;;5020384;28;20462;-46
2022/03/07 10:42:49;;;;;;;7.30;6.40;;;9.20;37.10;;;;;;5021020;28;20462;-45
2022/03/07 10:45:16;;;;;;;6.60;6.00;;;9.50;36.90;;;;;;5017761;28;20531;-45
2022/03/07 10:47:49;;;;;;;7.93;7.07;;;9.70;36.40;;;;;;5010608;28;20489;-45
2022/03/07 10:50:20;;;;;;;7.50;6.13;;;9.80;36.50;;;;;;5020037;28;20464;-45
2022/03/07 10:52:47;;;;;;;6.43;5.83;;;10.10;36.90;;;;;;5021595;28;20474;-45
2022/03/07 10:55:14;;;;;;;8.20;6.20;;;10.20;36.30;;;;;;5019483;28;20846;-44
2022/03/07 10:57:42;;;;;;;7.53;6.80;;;10.20;35.50;;;;;;5018615;28;20455;-44
2022/03/07 11:00:13;;;;;;;7.60;6.90;;;10.20;36.20;;;;;;5019745;28;20515;-45
2022/03/07 11:02:40;;;;;;;7.03;6.40;;;10.20;35.60;;;;;;5018930;28;20455;-45
2022/03/07 11:05:09;;;;;;;7.47;5.93;;;10.10;35.30;;;;;;5007839;28;20590;-44
2022/03/07 11:07:41;;;;;;;12.37;7.43;;;10.10;35.50;;;;;;5023706;28;20471;-45
2022/03/07 11:10:10;;;;;;;7.07;6.37;;;10.00;35.30;;;;;;5014231;28;20546;-44
2022/03/07 11:12:41;;;;;;;5.97;5.47;;;10.10;36.00;;;;;;5003441;28;20473;-45
2022/03/07 11:15:09;;;;;;;6.77;6.10;;;10.10;36.10;;;;;;5020012;28;20492;-46
2022/03/07 11:17:44;;;;;;;7.57;6.73;;;10.10;36.10;;;;;;5022551;28;21221;-45
2022/03/07 11:20:13;;;;;;;7.43;6.73;;;10.00;35.50;;;;;;5014250;28;20548;-46
2022/03/07 11:22:40;;;;;;;7.03;6.33;;;10.00;36.20;;;;;;5016425;28;20544;-45
2022/03/07 11:25:09;;;;;;;7.90;7.13;;;10.00;35.70;;;;;;5014463;28;20486;-45
2022/03/07 11:27:37;;;;;;;6.60;6.00;;;10.10;36.00;;;;;;5006492;28;20906;-44
2022/03/07 11:30:19;;;;;;;7.30;6.60;;;10.10;35.30;;;;;;5032927;28;20472;-44
2022/03/07 11:32:50;;;;;;;7.83;5.53;;;10.10;36.10;;;;;;5019474;28;20474;-44
2022/03/07 11:35:17;;;;;;;7.43;6.53;;;10.30;35.80;;;;;;5017177;28;20484;-45
2022/03/07 11:37:44;;;;;;;6.83;6.17;;;10.30;35.70;;;;;;5019068;28;20506;-44
2022/03/07 11:40:23;;;;;;;7.70;6.13;;;10.30;34.90;;;;;;5020366;28;20455;-44
2022/03/07 11:42:50;;;;;;;6.80;6.13;;;10.20;35.10;;;;;;5015283;28;20459;-44
2022/03/07 11:45:21;;;;;;;7.53;5.83;;;10.20;35.90;;;;;;5010778;28;20461;-45
2022/03/07 11:47:50;;;;;;;10.77;6.10;;;10.20;37.10;;;;;;5022023;28;20482;-45
2022/03/07 11:50:20;;;;;;;6.80;6.10;;;10.20;36.60;;;;;;5025441;28;20830;-45
2022/03/07 11:52:47;;;;;;;7.30;6.40;;;10.20;36.60;;;;;;5016380;28;21026;-45
2022/03/07 11:55:19;;;;;;;7.50;6.83;;;10.20;36.00;;;;;;5017754;28;20576;-44
2022/03/07 11:57:48;;;;;;;7.53;6.63;;;10.20;36.40;;;;;;5033649;28;20451;-45
2022/03/07 12:00:31;;;;;;;7.43;6.30;;;10.20;37.00;;;;;;5017150;28;20497;-45
2022/03/07 12:03:00;;;;;;;6.50;5.90;;;10.10;37.20;;;;;;5020798;28;20494;-45
2022/03/07 12:05:27;;;;;;;7.80;6.63;;;10.10;36.40;;;;;;5019976;28;20475;-45
2022/03/07 12:08:16;;;;;;;7.97;6.67;;;10.00;36.80;;;;;;5016354;28;20467;-45
2022/03/07 12:10:59;;;;;;;7.83;6.27;;;10.00;36.90;;;;;;4998770;28;20993;-45
2022/03/07 12:13:29;;;;;;;7.50;6.33;;;10.10;36.50;;;;;;5016904;28;20463;-45
2022/03/07 12:16:00;;;;;;;7.10;6.37;;;10.10;36.40;;;;;;5019364;28;20485;-45
2022/03/07 12:18:30;;;;;;;7.40;6.70;;;10.10;37.20;;;;;;5011639;28;20460;-45
2022/03/07 12:20:59;;;;;;;8.47;6.90;;;10.10;36.40;;;;;;5006145;28;20452;-45
2022/03/07 12:23:28;;;;;;;7.60;6.57;;;9.90;36.90;;;;;;5023438;28;20499;-45
2022/03/07 12:26:13;;;;;;;7.43;6.73;;;9.80;37.20;;;;;;5017537;28;20463;-45
2022/03/07 12:28:41;;;;;;;7.73;7.00;;;9.80;37.60;;;;;;5020196;28;20459;-45
2022/03/07 12:31:08;;;;;;;7.43;6.50;;;9.70;38.80;;;;;;5021055;28;20470;-45
2022/03/07 12:33:36;;;;;;;11.00;8.53;;;9.60;38.40;;;;;;5017839;28;20468;-45
2022/03/07 12:36:25;;;;;;;8.00;7.20;;;9.60;38.10;;;;;;5022565;28;20475;-44
2022/03/07 12:38:57;;;;;;;12.00;8.63;;;9.50;39.10;;;;;;5021798;28;20980;-44
2022/03/07 12:41:36;;;;;;;11.80;9.50;;;9.40;37.60;;;;;;5017093;28;20879;-44
2022/03/07 12:44:04;;;;;;;13.73;9.80;;;9.40;38.50;;;;;;5018860;28;20494;-44
2022/03/07 12:46:32;;;;;;;9.37;8.20;;;9.50;38.00;;;;;;4999676;28;20502;-44
2022/03/07 12:48:59;;;;;;;15.30;8.07;;;9.50;38.00;;;;;;5017017;28;20880;-44
2022/03/07 12:51:27;;;;;;;9.63;7.33;;;9.60;36.90;;;;;;5019941;28;20471;-44
2022/03/07 12:54:01;;;;;;;15.50;8.97;;;9.50;37.40;;;;;;5006596;28;20459;-44
2022/03/07 12:56:38;;;;;;;19.37;10.50;;;9.60;37.80;;;;;;5016426;28;20506;-44